Date,TemperatureHighF,TemperatureAvgF,TemperatureLowF,DewpointHighF,DewpointAvgF,DewpointLowF,HumidityHigh,HumidityAvg,HumidityLow,PressureMaxIn,PressureMinIn,WindSpeedMaxMPH,WindSpeedAvgMPH,GustSpeedMaxMPH,PrecipitationSumIn
2013-1-1,50.4,47.7,43.9,49.5,44.7,36.7,97,90,71,30.14,29.93,0,0,0,1.87
2013-1-2,50.4,43.7,38.6,49.6,41.9,36.6,97,93,87,30.15,29.90,2,0,2,0.07
2013-1-3,44.1,38.5,34.1,37.0,34.4,28.6,94,85,69,30.32,30.12,2,0,2,0.00
2013-1-4,48.9,36.8,28.1,31.0,26.3,18.2,92,69,32,30.39,30.29,3,0,3,0.00
2013-1-5,48.1,37.9,27.0,38.4,28.6,24.1,91,71,44,30.40,30.27,2,0,2,0.02
2013-1-6,48.4,41.9,36.5,41.4,37.5,34.0,91,85,72,30.30,30.14,2,0,2,0.00
2013-1-7,54.0,42.3,29.5,35.1,31.5,27.3,93,68,40,30.38,30.25,4,0,4,0.00
2013-1-8,51.1,45.4,38.7,41.1,36.4,31.2,76,71,62,30.41,30.30,5,0,5,0.00
2013-1-9,63.3,56.0,49.1,53.8,48.3,40.8,83,75,70,30.42,30.33,2,0,2,0.00
2013-1-10,67.2,60.9,57.2,58.9,55.4,51.8,94,82,71,30.39,30.19,4,0,4,0.02
2013-1-11,66.4,63.0,59.9,64.0,61.8,58.7,98,96,91,30.20,30.07,6,0,6,0.34
2013-1-12,71.7,63.4,58.1,65.0,60.4,56.0,99,91,70,30.13,30.01,3,0,3,0.01
2013-1-13,70.4,64.0,57.8,62.5,60.2,55.8,97,88,74,30.08,29.97,4,0,4,0.04
2013-1-14,64.5,57.2,48.4,63.8,56.1,47.5,98,96,92,30.10,29.98,1,0,1,0.84
2013-1-15,61.4,53.8,48.5,60.9,53.3,47.7,99,98,97,30.09,29.93,1,0,1,0.90
2013-1-16,63.6,58.0,52.2,63.3,57.4,51.5,99,98,96,29.98,29.88,2,0,3,0.78
2013-1-17,55.1,46.8,35.6,54.8,46.0,34.3,99,97,93,30.24,29.69,5,0,5,1.08
2013-1-18,50.2,36.5,30.1,38.4,32.5,29.1,97,87,47,30.50,30.24,2,0,2,0.01
2013-1-19,52.8,41.7,29.4,36.5,31.4,27.5,97,70,39,30.46,30.23,3,0,3,0.00
2013-1-20,58.4,43.7,31.1,41.0,35.5,29.6,96,75,49,30.23,30.10,2,0,2,0.00
2013-1-21,54.3,42.7,33.2,41.3,31.2,20.6,95,67,44,30.17,30.07,2,0,2,0.00
2013-1-22,40.4,34.5,28.2,21.7,16.6,12.6,66,48,34,30.32,30.15,3,0,3,0.00
2013-1-23,49.7,38.5,27.1,39.6,24.7,16.0,75,58,41,30.40,30.18,2,0,2,0.00
2013-1-24,50.1,45.0,32.5,41.1,29.2,16.2,82,56,27,30.36,30.12,3,0,3,0.00
2013-1-25,37.5,33.1,29.6,32.2,19.8,10.8,91,59,42,30.40,30.15,5,0,5,0.02
2013-1-26,46.2,37.9,34.6,37.0,35.4,32.2,95,91,68,30.27,30.14,1,0,1,0.00
2013-1-27,49.5,42.5,36.6,34.4,32.9,29.9,81,69,55,30.46,30.27,3,0,4,0.00
2013-1-28,52.2,45.5,41.3,45.2,38.8,32.3,90,77,68,30.43,30.27,1,0,4,0.00
2013-1-29,70.8,56.7,41.5,62.2,52.4,39.1,96,86,68,30.27,29.94,5,0,5,0.11
2013-1-30,68.5,59.8,42.0,64.7,57.6,38.4,96,92,87,29.95,29.45,7,0,7,2.55
2013-1-31,46.1,39.9,33.4,38.6,28.8,25.3,88,65,45,30.15,29.75,7,0,7,0.00
2013-2-1,39.7,35.3,26.9,31.5,18.9,7.2,73,53,28,30.37,30.11,5,0,5,0.00
2013-2-2,48.8,35.6,23.0,38.9,23.4,13.4,95,66,27,30.37,30.13,4,0,4,0.28
2013-2-3,54.2,42.9,34.3,40.6,33.5,27.6,96,73,38,30.13,29.98,6,0,6,0.00
2013-2-4,48.6,39.3,29.8,33.6,29.5,26.0,89,70,43,30.12,30.00,2,0,2,0.00
2013-2-5,56.0,46.2,33.7,48.7,40.3,30.5,90,80,65,30.04,29.97,1,0,1,0.00
2013-2-6,65.7,50.9,42.3,46.9,39.7,34.4,97,70,35,30.17,30.03,3,0,3,0.00
2013-2-7,49.7,45.7,43.2,45.0,40.5,33.7,95,83,55,30.13,29.92,6,0,6,0.29
2013-2-8,52.9,47.2,36.7,49.3,43.8,32.9,95,88,71,30.16,29.91,2,0,2,0.03
2013-2-9,59.5,44.0,30.1,37.0,31.1,26.0,95,66,29,30.30,30.13,4,0,4,0.00
2013-2-10,58.8,48.9,42.3,50.0,40.0,30.5,97,72,56,30.32,30.04,8,0,8,0.36
2013-2-11,55.5,51.2,48.4,55.0,50.5,47.6,98,97,96,30.13,30.01,3,0,3,0.00
2013-2-12,55.2,48.1,43.2,47.6,43.6,37.4,98,86,53,30.11,29.84,4,0,5,0.01
2013-2-13,51.4,44.2,37.0,49.0,41.8,33.9,98,91,82,29.96,29.73,4,0,4,0.00
2013-2-14,53.9,43.3,36.1,37.1,34.9,32.7,90,74,45,30.08,29.95,3,0,3,0.00
2013-2-15,61.1,45.8,30.8,43.2,35.7,29.5,97,72,41,30.12,29.98,3,0,3,0.00
2013-2-16,43.9,37.4,28.8,37.0,24.4,13.9,81,61,37,30.14,29.94,5,0,5,0.00
2013-2-17,43.5,33.3,22.8,21.7,16.0,12.2,73,51,29,30.30,30.13,4,0,4,0.00
2013-2-18,56.7,42.3,26.3,29.3,25.5,20.1,86,55,33,30.37,30.13,4,0,4,0.01
2013-2-19,53.9,45.0,37.9,46.8,33.7,21.4,96,67,43,30.14,29.99,5,0,5,0.26
2013-2-20,51.2,40.3,31.1,24.9,18.4,9.9,62,43,23,30.19,30.10,3,0,3,0.00
2013-2-21,61.8,47.9,30.2,40.8,24.2,17.3,77,42,22,30.19,29.95,4,0,4,0.08
2013-2-22,47.6,41.2,39.8,42.2,39.7,37.8,97,94,77,30.16,30.02,5,0,5,1.64
2013-2-23,50.0,45.1,40.4,47.8,43.9,39.3,98,95,91,30.05,29.85,2,0,2,0.89
2013-2-24,61.2,50.9,39.4,47.7,39.4,31.7,98,69,34,30.02,29.89,3,0,3,0.00
2013-2-25,49.5,44.4,38.9,38.4,33.6,29.1,93,67,51,30.03,29.86,2,0,9,0.00
2013-2-26,46.7,41.1,35.9,45.1,39.1,34.6,96,92,80,29.86,29.57,3,0,6,1.14
2013-2-27,57.4,47.7,40.4,39.2,35.7,33.2,82,64,44,29.89,29.78,4,0,4,0.00
2013-2-28,48.2,41.4,35.4,37.8,31.4,25.7,84,68,55,29.99,29.83,4,0,5,0.00
2013-3-1,42.1,37.8,33.6,31.1,29.1,25.6,79,71,62,30.00,29.94,1,0,2,0.00
2013-3-2,40.9,36.1,33.3,32.6,29.3,24.8,89,76,61,30.02,29.93,5,0,5,0.00
2013-3-3,41.4,33.7,28.4,25.6,22.1,19.2,77,63,42,30.09,29.99,3,0,3,0.00
2013-3-4,57.0,42.3,26.2,33.9,25.3,19.9,83,55,27,30.19,30.00,3,0,3,0.00
2013-3-5,65.1,52.2,38.7,55.8,44.0,29.4,93,74,61,30.06,29.65,5,0,6,0.74
2013-3-6,40.9,36.2,31.0,31.0,27.4,22.5,87,70,61,30.19,29.86,5,0,5,0.00
2013-3-7,55.1,41.9,29.7,34.3,30.4,26.7,90,66,42,30.27,30.16,2,0,2,0.00
2013-3-8,60.5,45.6,29.4,32.5,28.7,25.1,90,56,28,30.32,30.20,3,0,3,0.00
2013-3-9,59.9,50.3,37.8,36.8,30.6,26.0,73,48,34,30.32,30.19,5,0,5,0.00
2013-3-10,68.3,58.4,48.0,47.0,37.4,32.0,67,47,27,30.21,30.04,8,0,8,0.00
2013-3-11,63.9,56.6,50.6,56.2,51.9,46.9,97,85,67,30.05,29.78,6,0,6,1.33
2013-3-12,55.7,47.3,37.6,49.5,37.8,33.5,96,72,44,30.08,29.80,4,0,4,0.00
2013-3-13,54.9,45.2,34.9,35.2,29.3,22.6,89,57,32,30.25,30.08,4,0,4,0.00
2013-3-14,52.4,40.5,28.2,26.5,21.0,14.0,72,48,23,30.37,30.22,2,0,2,0.00
2013-3-15,72.8,55.0,33.0,44.3,37.2,24.9,90,55,34,30.24,29.97,4,0,4,0.00
2013-3-16,75.9,63.4,48.9,45.8,42.7,37.1,78,50,25,29.98,29.83,5,0,5,0.00
2013-3-17,70.9,62.1,51.8,55.4,49.6,42.8,84,64,48,29.97,29.86,2,0,3,0.00
2013-3-18,59.7,52.1,44.9,56.4,49.1,43.8,96,90,77,30.01,29.78,4,0,4,0.56
2013-3-19,61.7,53.0,45.1,45.3,36.5,28.2,97,59,28,30.06,29.86,3,0,3,0.00
2013-3-20,56.7,47.3,38.1,33.2,25.3,17.7,75,45,23,30.12,29.89,3,0,3,0.00
2013-3-21,46.1,39.4,29.8,29.9,18.7,7.3,72,46,23,29.97,29.89,4,0,4,0.00
2013-3-22,49.1,42.3,34.1,35.4,27.8,19.7,68,56,48,30.07,29.96,2,0,2,0.00
2013-3-23,54.2,47.6,42.6,49.7,43.8,34.9,97,87,62,30.02,29.76,4,0,4,0.99
2013-3-24,49.2,47.5,42.4,48.1,45.4,33.8,96,93,72,29.79,29.50,5,0,5,1.33
2013-3-25,42.2,37.9,34.4,34.4,26.9,24.0,76,65,55,30.07,29.68,6,0,6,0.00
2013-3-26,42.7,36.7,31.7,29.8,26.5,23.8,81,67,52,30.29,30.04,5,0,5,0.00
2013-3-27,52.2,40.6,27.8,29.3,26.7,24.6,89,61,36,30.35,30.24,1,0,5,0.00
2013-3-28,60.2,46.0,30.5,33.8,29.1,23.5,88,56,27,30.34,30.23,4,0,4,0.00
2013-3-29,65.9,51.0,33.9,37.1,33.2,27.8,91,56,29,30.33,30.15,4,0,4,0.00
2013-3-30,71.5,59.1,49.2,55.1,43.5,34.1,95,58,40,30.17,29.99,2,0,2,0.43
2013-3-31,67.5,60.0,55.4,61.1,55.8,54.2,96,87,67,29.99,29.82,3,0,3,0.19
2013-4-1,71.5,60.9,53.7,56.2,50.1,40.1,96,71,33,29.99,29.83,1,0,3,0.00
2013-4-2,65.8,54.8,44.7,42.9,35.4,27.4,82,51,25,30.15,29.99,3,0,3,0.00
2013-4-3,60.5,51.2,42.5,43.9,34.0,27.9,87,54,35,30.17,30.06,5,0,5,0.09
2013-4-4,46.7,42.4,39.7,43.0,39.7,37.3,94,90,84,30.15,29.97,9,0,9,0.34
2013-4-5,65.7,51.1,39.7,49.2,41.6,38.1,97,73,40,30.05,29.94,4,0,4,0.03
2013-4-6,70.0,56.0,38.5,45.5,39.2,35.5,95,59,29,30.18,30.05,6,0,6,0.00
2013-4-7,73.5,61.0,46.2,51.5,46.4,41.5,85,61,38,30.18,30.03,4,0,4,0.00
2013-4-8,76.5,65.0,54.1,58.1,53.2,49.2,89,68,45,30.12,30.01,5,0,5,0.00
2013-4-9,80.4,67.8,53.5,61.2,56.1,50.9,94,69,45,30.15,30.02,3,0,3,0.00
2013-4-10,82.9,70.1,55.9,61.8,57.0,53.2,93,66,43,30.08,29.88,3,0,3,0.00
2013-4-11,77.7,69.0,58.9,67.8,60.9,54.8,94,76,59,29.90,29.59,4,0,4,1.04
2013-4-12,68.7,62.1,54.8,63.4,51.2,40.6,96,71,38,29.88,29.58,4,0,4,0.18
2013-4-13,76.3,61.2,45.7,45.0,40.8,33.0,84,52,21,30.01,29.88,3,0,3,0.00
2013-4-14,61.2,54.9,47.4,55.0,48.2,42.3,91,79,59,30.03,29.86,3,0,3,0.14
2013-4-15,73.8,63.7,56.5,59.9,57.3,53.8,94,81,60,30.11,29.90,2,0,2,0.00
2013-4-16,79.3,69.0,59.7,64.1,61.6,57.1,95,79,58,30.22,30.11,3,0,3,0.00
2013-4-17,83.5,71.7,62.5,66.1,62.7,59.8,92,75,52,30.18,30.03,3,0,3,0.01
2013-4-18,79.7,69.7,60.4,62.3,60.3,58.7,97,74,52,30.04,29.86,4,0,4,0.00
2013-4-19,69.2,58.1,44.5,65.6,54.1,40.8,95,87,72,30.00,29.72,3,0,4,0.85
2013-4-20,65.4,50.5,38.0,41.2,35.9,32.2,89,61,30,30.22,30.00,5,0,5,0.00
2013-4-21,68.9,55.1,40.7,42.7,39.8,36.7,90,60,34,30.32,30.21,4,0,4,0.00
2013-4-22,70.2,57.6,48.3,48.2,42.9,38.6,76,59,42,30.30,30.12,5,0,5,0.00
2013-4-23,73.6,62.0,46.1,51.2,45.5,37.2,81,56,39,30.22,30.04,2,0,2,0.01
2013-4-24,76.9,62.9,53.5,62.2,56.3,49.6,95,80,52,30.10,30.03,2,0,3,0.10
2013-4-25,73.3,56.9,44.6,53.6,43.2,34.4,92,65,29,30.29,30.09,3,0,3,0.00
2013-4-26,76.3,58.9,39.5,48.5,41.5,35.9,93,56,30,30.36,30.22,5,0,5,0.00
2013-4-27,68.7,61.6,55.1,56.9,52.4,44.2,92,73,49,30.32,30.11,3,0,3,0.01
2013-4-28,58.5,56.4,55.0,57.2,55.2,53.6,97,96,87,30.17,29.98,1,0,2,2.28
2013-4-29,75.2,61.6,55.4,63.4,57.3,54.6,98,87,56,30.03,29.90,1,0,1,0.01
2013-4-30,78.5,65.4,56.4,64.8,59.0,55.0,97,82,54,30.06,29.92,1,0,1,0.00
2013-5-1,68.7,63.3,60.4,60.2,57.4,55.0,92,82,65,30.16,30.05,3,0,5,0.00
2013-5-2,66.0,61.0,58.7,60.3,57.2,54.5,92,87,80,30.17,30.09,6,0,6,0.00
2013-5-3,62.4,59.6,57.6,57.6,56.2,53.6,94,89,79,30.11,29.94,6,0,6,0.00
2013-5-4,59.1,53.4,49.4,55.1,51.6,47.8,98,94,83,29.94,29.82,5,0,5,2.70
2013-5-5,68.5,56.4,49.1,58.9,52.5,47.6,98,88,53,29.83,29.71,2,0,2,2.07
2013-5-6,57.8,50.8,46.3,51.7,48.8,45.2,97,93,77,29.89,29.78,1,0,1,0.23
2013-5-7,68.3,56.7,50.5,56.6,52.1,49.6,97,86,59,29.96,29.85,1,0,1,0.01
2013-5-8,77.1,63.0,50.1,60.2,55.6,48.7,97,79,54,30.03,29.93,2,0,2,0.00
2013-5-9,84.7,68.7,55.0,63.4,58.2,53.6,98,72,41,30.08,29.99,2,0,2,0.00
2013-5-10,78.1,67.5,56.6,64.9,59.9,55.0,97,78,56,30.05,29.91,2,0,2,0.00
2013-5-11,75.0,66.5,59.7,67.5,62.4,57.7,96,87,72,29.95,29.84,1,0,1,0.51
2013-5-12,70.2,59.8,50.1,60.5,48.9,38.5,98,71,35,30.07,29.89,3,0,3,0.00
2013-5-13,69.8,55.7,40.5,43.2,39.7,34.8,93,59,29,30.22,30.07,4,0,4,0.00
2013-5-14,80.5,62.4,43.6,57.0,49.2,41.2,94,66,38,30.24,30.08,3,0,3,0.00
2013-5-15,88.0,71.9,57.3,62.4,57.4,53.8,90,63,37,30.13,29.97,1,0,2,0.00
2013-5-16,84.3,70.3,60.8,65.6,60.5,57.2,90,73,48,30.05,29.93,1,0,1,0.00
2013-5-17,83.0,68.7,58.2,66.2,59.7,55.0,93,75,44,30.06,29.97,3,0,3,0.06
2013-5-18,73.3,68.4,62.6,67.4,65.0,60.8,96,89,78,30.04,29.99,1,0,1,0.26
2013-5-19,68.4,66.2,63.0,67.5,65.1,62.4,98,97,92,30.08,29.94,1,0,1,1.73
2013-5-20,85.0,72.3,62.9,73.0,67.2,62.2,99,86,62,30.08,29.96,1,0,1,0.00
2013-5-21,89.7,75.5,64.5,75.2,69.1,63.3,98,82,51,30.00,29.85,1,0,1,0.07
2013-5-22,89.0,75.8,65.6,71.4,66.5,63.8,94,75,46,29.94,29.80,2,0,2,0.00
2013-5-23,85.2,73.8,66.7,67.1,63.8,57.5,97,73,50,29.93,29.85,5,0,5,0.10
2013-5-24,77.0,66.0,57.8,58.5,54.0,45.7,87,67,35,30.17,29.93,3,0,3,0.00
2013-5-25,81.3,63.6,47.3,51.2,48.0,44.6,93,61,29,30.29,30.16,2,0,2,0.00
2013-5-26,85.8,67.7,52.6,57.1,52.6,49.2,93,63,29,30.23,30.11,1,0,1,0.00
2013-5-27,87.6,71.6,58.0,63.2,58.6,53.8,90,66,39,30.19,30.05,2,0,2,0.00
2013-5-28,86.8,74.5,63.9,65.6,61.5,57.6,88,66,41,30.15,30.06,3,0,3,0.00
2013-5-29,84.9,73.4,62.4,66.3,63.5,59.7,92,73,51,30.18,30.07,3,0,3,0.00
2013-5-30,84.5,74.5,66.0,69.1,65.7,62.6,91,75,54,30.19,30.06,2,0,2,0.00
2013-5-31,85.9,75.1,67.9,68.9,66.0,64.4,90,75,52,30.15,30.02,1,0,3,0.00
2013-6-1,85.8,76.5,68.5,70.2,67.3,64.3,90,74,58,30.05,29.93,2,0,2,0.00
2013-6-2,87.0,75.0,67.4,72.9,69.2,65.9,95,83,61,29.95,29.81,2,0,2,0.34
2013-6-3,84.8,73.5,66.3,72.9,68.0,64.9,98,84,59,29.92,29.82,4,0,4,0.01
2013-6-4,88.5,75.5,63.9,70.7,66.7,62.4,96,76,49,29.97,29.89,3,0,3,0.00
2013-6-5,85.7,74.6,68.7,73.7,69.9,67.1,96,86,63,29.98,29.83,2,0,2,1.07
2013-6-6,78.5,71.6,66.9,72.8,68.8,66.0,98,91,76,29.88,29.71,1,0,1,0.04
2013-6-7,85.2,71.8,66.6,72.9,68.1,65.5,98,89,65,29.81,29.65,3,0,3,0.57
2013-6-8,82.4,72.8,65.8,71.1,67.8,65.2,98,85,63,30.03,29.81,1,0,1,0.00
2013-6-9,82.3,73.2,68.2,74.3,70.2,67.0,97,91,70,30.05,29.95,2,0,2,0.49
2013-6-10,77.3,71.7,65.3,72.6,69.5,63.5,98,93,83,30.01,29.89,3,0,3,0.31
2013-6-11,89.5,78.5,70.7,76.7,72.8,69.5,97,84,61,30.00,29.91,2,0,2,0.00
2013-6-12,93.4,81.8,71.7,77.9,74.4,70.3,97,80,57,30.00,29.90,2,0,2,0.00
2013-6-13,92.8,80.2,69.2,75.8,72.6,67.1,96,80,52,29.91,29.68,4,0,4,0.68
2013-6-14,87.4,74.4,65.3,68.6,65.8,61.5,98,78,45,29.95,29.78,2,0,2,0.00
2013-6-15,86.6,74.9,64.8,66.0,63.3,60.9,90,69,45,30.08,29.95,2,0,2,0.00
2013-6-16,88.8,75.4,62.9,72.6,67.4,60.8,95,78,54,30.10,29.96,2,0,2,0.74
2013-6-17,85.0,73.0,67.7,75.2,69.9,66.0,97,91,70,30.06,29.89,1,0,1,0.78
2013-6-18,83.8,72.8,67.6,77.0,70.7,66.7,99,94,73,29.93,29.80,3,0,3,1.87
2013-6-19,81.2,73.1,66.9,73.1,69.3,66.3,99,89,70,30.03,29.85,1,0,1,0.00
2013-6-20,85.3,74.2,66.0,71.3,67.7,65.1,98,82,59,30.14,30.03,2,0,2,0.00
2013-6-21,86.0,74.9,65.9,69.2,66.5,64.2,95,77,52,30.19,30.09,2,0,2,0.00
2013-6-22,86.2,74.6,64.7,68.5,65.6,63.0,96,76,49,30.17,30.04,1,0,1,0.00
2013-6-23,87.0,74.7,66.8,75.2,69.3,65.2,96,84,58,30.16,30.04,2,0,2,0.10
2013-6-24,84.8,75.4,69.5,75.2,71.3,68.4,98,88,70,30.18,30.06,1,0,1,0.02
2013-6-25,87.9,76.5,68.2,75.2,70.8,67.0,98,84,60,30.12,29.98,1,0,1,0.00
2013-6-26,89.3,78.8,70.0,76.8,72.8,68.5,97,83,62,30.03,29.88,2,0,2,0.00
2013-6-27,87.4,79.7,73.6,77.7,73.7,70.8,94,82,67,29.93,29.75,4,0,4,0.55
2013-6-28,91.0,80.0,71.4,78.5,72.5,66.6,98,80,58,29.81,29.59,2,0,2,0.00
2013-6-29,88.8,77.9,69.9,72.5,69.4,65.6,95,76,52,29.66,29.59,1,0,1,0.00
2013-6-30,86.8,75.7,67.7,71.3,68.6,66.1,97,80,52,29.75,29.64,0,0,1,0.00
2013-7-1,83.8,73.2,68.1,72.6,69.0,65.1,95,87,64,29.87,29.73,2,0,2,0.83
2013-7-2,84.2,75.8,68.8,73.6,70.2,67.6,97,84,66,30.03,29.86,1,0,1,0.00
2013-7-3,74.9,71.1,67.3,72.6,69.3,66.2,97,94,82,30.12,30.00,1,0,2,1.82
2013-7-4,74.0,70.4,67.1,73.0,69.6,66.2,99,97,93,30.14,30.04,1,0,1,0.71
2013-7-5,82.7,72.3,69.1,74.8,70.5,68.3,98,94,75,30.16,30.08,2,0,2,0.85
2013-7-6,82.0,73.7,69.0,76.8,71.6,68.1,99,93,78,30.12,30.02,1,0,1,0.32
2013-7-7,78.3,73.9,70.9,74.6,72.1,70.0,98,94,87,30.13,30.06,1,0,1,0.11
2013-7-8,89.1,78.4,70.9,76.7,73.2,70.0,98,85,62,30.15,30.03,1,0,1,0.00
2013-7-9,89.5,78.0,71.9,79.5,74.1,70.4,97,88,64,30.13,30.00,1,0,1,0.11
2013-7-10,89.5,78.4,73.1,78.1,74.1,71.6,98,88,65,30.05,29.91,1,0,1,0.01
2013-7-11,80.0,74.5,69.7,75.1,72.1,68.4,97,92,83,29.93,29.82,1,0,1,0.01
2013-7-12,89.1,76.0,70.4,77.2,71.8,66.6,98,88,64,29.91,29.79,2,0,3,0.19
2013-7-13,77.4,71.5,67.9,72.6,68.8,66.1,95,91,83,30.02,29.89,3,0,3,0.00
2013-7-14,82.9,74.8,71.1,75.7,72.2,69.5,97,92,77,30.16,30.00,2,0,2,0.37
2013-7-15,86.5,76.5,70.7,75.3,71.8,69.3,98,86,65,30.24,30.14,1,0,3,0.00
2013-7-16,88.8,78.1,69.7,74.8,71.0,68.0,97,80,58,30.27,30.18,1,0,1,0.00
2013-7-17,93.5,77.1,68.3,78.4,71.5,67.0,98,84,54,30.24,30.07,1,0,1,0.95
2013-7-18,88.7,77.5,67.8,76.4,71.7,66.9,99,84,63,30.18,30.00,1,0,1,0.04
2013-7-19,90.3,79.1,72.1,77.2,73.9,70.9,98,85,64,30.07,29.92,1,0,1,0.29
2013-7-20,87.4,75.4,70.4,76.8,72.2,69.5,98,90,68,29.99,29.89,1,0,1,0.04
2013-7-21,89.8,76.5,70.3,76.4,72.2,69.3,98,88,59,30.00,29.87,1,0,1,0.34
2013-7-22,86.0,75.7,69.8,76.8,72.5,68.8,98,90,71,29.98,29.82,1,0,1,0.05
2013-7-23,83.3,75.5,70.8,74.8,71.4,69.1,96,87,70,29.93,29.79,2,0,3,0.00
2013-7-24,83.0,75.9,69.7,76.0,71.9,68.5,97,88,75,29.85,29.75,2,0,2,0.00
2013-7-25,89.9,77.3,68.0,74.7,70.6,67.0,98,81,54,29.95,29.78,1,0,1,0.00
2013-7-26,85.2,75.7,68.1,75.8,71.1,66.3,95,86,67,30.01,29.92,1,0,1,0.00
2013-7-27,80.1,74.4,70.6,73.4,70.6,68.4,97,88,73,29.96,29.85,1,0,1,0.00
2013-7-28,87.0,75.7,67.5,74.4,70.2,66.3,98,84,61,29.99,29.88,1,0,1,0.00
2013-7-29,86.5,73.9,66.2,69.8,65.4,57.8,97,77,41,30.12,29.98,1,0,1,0.00
2013-7-30,91.0,74.7,61.1,70.0,64.1,59.5,97,73,36,30.16,30.05,1,0,1,0.00
2013-7-31,76.4,73.6,70.4,73.5,71.0,68.2,97,92,79,30.10,29.92,1,0,1,0.54
2013-8-1,87.5,76.3,71.2,76.3,72.6,69.4,98,89,64,29.96,29.86,1,0,1,0.07
2013-8-2,89.9,76.3,66.7,74.4,69.5,65.8,98,81,50,29.99,29.88,1,0,1,0.00
2013-8-3,86.3,75.9,66.4,74.1,70.4,65.2,99,84,64,30.01,29.95,2,0,2,0.00
2013-8-4,88.3,78.8,72.6,76.1,72.6,68.8,96,82,63,29.98,29.90,1,0,1,0.00
2013-8-5,87.3,76.3,67.3,75.1,69.8,65.5,94,81,58,30.00,29.92,1,0,1,0.00
2013-8-6,89.0,77.8,71.2,75.9,71.6,67.9,95,82,58,29.96,29.89,0,0,0,0.00
2013-8-7,81.0,75.6,73.4,77.1,73.6,71.5,98,94,86,30.00,29.92,0,0,0,0.85
2013-8-8,81.1,75.3,72.9,77.9,73.8,71.9,98,95,88,30.01,29.95,0,0,0,0.66
2013-8-9,89.2,79.6,72.7,77.9,74.7,72.1,99,86,64,30.04,29.95,3,0,3,0.00
2013-8-10,91.8,78.0,72.0,78.9,74.4,70.8,98,89,61,30.07,30.01,2,0,2,1.31
2013-8-11,90.9,79.2,71.6,77.7,73.9,70.7,99,85,63,30.12,30.00,1,0,2,0.00
2013-8-12,86.5,76.6,71.5,79.2,73.4,70.5,98,90,72,30.06,29.94,1,0,1,0.21
2013-8-13,85.7,75.9,70.4,76.5,72.7,69.5,98,90,70,29.97,29.83,1,0,1,0.01
2013-8-14,81.5,74.6,68.7,74.9,71.6,66.1,97,91,77,29.97,29.83,1,0,1,0.11
2013-8-15,73.3,69.0,67.0,67.6,63.7,60.3,96,84,68,30.04,29.95,3,0,3,0.00
2013-8-16,67.2,65.1,62.0,63.9,62.2,60.3,96,90,82,30.08,29.99,2,0,2,0.07
2013-8-17,65.1,63.8,62.0,64.5,62.0,59.5,98,94,87,30.11,30.05,3,0,3,0.24
2013-8-18,73.3,68.7,65.1,71.3,67.7,64.5,99,97,92,30.17,30.06,1,0,1,0.47
2013-8-19,77.8,71.7,68.1,74.0,70.2,67.5,99,95,86,30.11,30.01,1,0,1,2.14
2013-8-20,79.5,73.7,69.7,74.4,71.4,68.8,98,93,84,30.13,30.04,1,0,1,0.00
2013-8-21,79.7,73.9,69.4,74.3,71.5,68.2,98,92,82,30.19,30.06,1,0,1,0.01
2013-8-22,88.1,76.2,69.2,76.3,72.1,68.3,99,88,63,30.13,30.00,1,0,1,0.08
2013-8-23,88.4,76.6,67.9,76.4,72.0,67.3,99,87,61,30.05,29.92,1,0,1,0.00
2013-8-24,82.7,74.4,68.1,72.4,69.1,66.4,97,84,66,30.20,29.98,2,0,2,0.02
2013-8-25,81.6,71.9,64.1,68.1,64.3,61.1,92,78,57,30.32,30.20,2,0,2,0.00
2013-8-26,82.2,69.7,59.9,67.1,63.1,58.8,98,81,57,30.27,30.11,2,0,2,0.00
2013-8-27,86.7,72.6,61.4,71.4,66.7,60.2,98,83,54,30.14,29.99,1,0,1,0.00
2013-8-28,71.1,68.1,66.0,69.3,66.7,65.1,98,96,93,30.02,29.96,0,0,0,0.00
2013-8-29,90.9,80.7,70.1,78.5,74.0,68.9,97,81,62,29.96,29.86,1,0,2,0.00
2013-8-30,83.7,77.7,72.8,77.1,74.2,71.4,96,89,79,29.97,29.87,1,0,1,0.00
2013-8-31,90.4,78.6,71.5,77.5,73.7,70.3,98,86,62,29.93,29.82,1,0,1,0.00
2013-9-1,83.4,75.1,69.8,77.3,72.4,68.9,99,91,81,29.89,29.80,1,0,1,0.00
2013-9-2,78.7,72.9,70.1,73.9,71.0,69.2,98,94,83,29.93,29.82,1,0,1,0.12
2013-9-3,86.7,75.7,69.9,75.9,71.5,69.0,99,88,64,29.93,29.83,2,0,2,0.00
2013-9-4,88.0,75.6,66.2,73.4,68.7,65.2,99,81,53,30.05,29.92,1,0,1,0.00
2013-9-5,85.7,75.2,66.6,73.8,69.5,65.4,98,84,60,30.08,30.00,1,0,1,0.00
2013-9-6,84.5,74.0,66.0,71.3,67.9,64.8,97,82,59,30.11,30.01,2,0,2,0.00
2013-9-7,84.1,73.3,64.2,69.9,66.7,63.0,97,81,57,30.09,29.96,1,0,1,0.00
2013-9-8,87.5,73.0,64.6,73.9,68.0,63.4,98,86,59,29.99,29.89,1,0,1,0.00
2013-9-9,87.2,76.8,67.6,72.8,69.6,66.4,97,80,58,30.07,29.94,1,0,1,0.00
2013-9-10,85.4,76.3,68.5,73.7,70.0,66.8,96,82,63,30.17,30.07,1,0,1,0.00
2013-9-11,87.2,75.8,66.4,73.7,67.9,64.3,98,79,49,30.18,30.05,1,0,1,0.00
2013-9-12,86.2,75.9,66.7,72.7,69.2,65.3,97,81,60,30.06,29.86,1,0,1,0.00
2013-9-13,83.4,74.0,62.8,70.8,65.8,57.4,96,77,49,29.88,29.77,3,0,3,0.00
2013-9-14,76.7,65.9,53.9,62.5,57.8,52.5,96,77,54,30.04,29.85,2,0,2,0.00
2013-9-15,79.7,70.2,62.1,70.2,65.3,59.5,93,85,70,30.13,30.04,1,0,1,0.00
2013-9-16,84.1,73.6,66.3,72.7,66.1,62.1,97,79,52,30.10,30.01,1,0,1,0.00
2013-9-17,75.5,69.9,65.5,64.5,62.9,61.0,92,79,66,30.19,30.06,4,0,4,0.00
2013-9-18,73.5,68.1,63.5,64.7,61.7,58.3,91,80,70,30.20,30.09,2,0,2,0.00
2013-9-19,81.0,69.9,60.0,66.7,62.9,58.6,96,80,56,30.16,30.03,1,0,1,0.00
2013-9-20,83.3,72.6,61.9,68.5,65.0,60.5,97,79,58,30.05,29.87,1,0,1,0.00
2013-9-21,72.7,67.9,63.4,69.5,66.0,62.8,98,94,83,29.89,29.67,1,0,1,1.04
2013-9-22,75.3,66.1,57.3,67.9,61.9,56.7,99,87,63,29.85,29.72,1,0,1,0.00
2013-9-23,75.9,67.3,59.7,65.7,61.6,58.6,97,83,64,29.98,29.84,2,0,2,0.00
2013-9-24,68.9,65.8,63.7,64.6,62.6,60.6,97,90,81,30.00,29.86,1,0,1,0.17
2013-9-25,64.9,63.5,61.8,64.3,62.8,61.2,98,98,97,29.87,29.80,1,0,1,1.55
2013-9-26,74.7,65.9,57.6,66.5,62.7,57.0,99,90,73,29.98,29.85,0,0,1,0.00
2013-9-27,74.1,66.7,58.1,64.8,60.5,56.3,96,81,60,30.11,29.98,2,0,2,0.00
2013-9-28,72.2,63.8,57.4,60.0,57.9,55.5,94,82,62,30.19,30.08,1,0,3,0.00
2013-9-29,71.2,62.4,55.5,59.6,56.7,53.5,95,83,62,30.12,30.01,2,0,2,0.00
2013-9-30,72.7,63.6,55.7,62.7,58.0,54.6,97,83,60,30.07,29.97,0,0,1,0.00
2013-10-1,77.4,64.8,55.5,66.7,60.1,54.4,98,86,61,30.14,30.02,1,0,1,0.00
2013-10-2,79.0,67.8,57.2,67.6,62.0,56.4,99,83,57,30.13,30.02,0,0,0,0.00
2013-10-3,78.4,69.8,62.4,67.5,63.5,61.2,97,82,59,30.11,30.02,0,0,0,0.00
2013-10-4,79.8,69.0,59.3,69.2,63.8,58.2,98,85,63,30.13,30.04,0,0,0,0.00
2013-10-5,81.8,71.7,60.2,70.3,64.9,59.3,99,81,59,30.09,29.97,0,0,0,0.00
2013-10-6,79.3,69.3,61.6,69.0,64.6,60.5,98,86,63,30.00,29.82,2,0,2,2.28
2013-10-7,69.3,62.8,55.5,65.2,60.0,53.8,98,91,74,29.93,29.78,3,0,3,0.81
2013-10-8,70.7,62.8,54.5,60.0,56.7,52.4,96,81,64,30.12,29.93,5,0,5,0.00
2013-10-9,70.0,62.6,53.8,59.0,53.4,46.9,93,73,54,30.18,30.07,2,0,2,0.00
2013-10-10,74.4,62.0,52.1,62.3,56.8,51.0,98,85,62,30.12,29.99,2,0,2,0.00
2013-10-11,74.3,62.6,53.2,62.3,57.1,52.1,98,84,58,30.03,29.94,2,0,2,0.00
2013-10-12,76.3,64.1,54.1,63.7,58.5,53.0,98,83,57,30.07,29.96,1,0,1,0.00
2013-10-13,77.3,65.8,56.2,65.6,60.9,54.9,98,85,61,30.16,30.05,0,0,0,0.00
2013-10-14,71.6,66.2,61.8,64.1,62.3,60.4,96,88,74,30.17,30.08,1,0,3,0.00
2013-10-15,66.0,63.4,61.6,61.2,60.1,59.0,94,89,81,30.12,30.02,1,0,1,0.00
2013-10-16,71.7,63.6,56.6,64.2,59.8,55.5,98,88,71,30.04,29.93,0,0,1,0.00
2013-10-17,67.7,64.9,59.5,67.1,63.9,58.9,98,96,93,29.94,29.85,0,0,0,0.50
2013-10-18,66.4,58.0,51.5,58.8,55.0,51.0,98,90,67,30.00,29.90,0,0,0,0.00
2013-10-19,61.4,57.2,53.9,58.7,55.7,53.1,98,94,88,29.96,29.90,0,0,0,0.04
2013-10-20,63.2,52.2,43.9,53.1,46.9,42.0,98,84,47,30.06,29.95,0,0,1,0.00
2013-10-21,67.5,54.9,43.6,59.5,51.4,42.5,99,89,65,30.13,30.00,2,0,2,0.00
2013-10-22,67.3,59.9,54.2,59.2,56.2,50.8,98,88,58,30.02,29.82,0,0,0,0.02
2013-10-23,58.6,51.6,41.6,52.7,45.1,38.3,96,80,55,30.08,29.81,6,0,6,0.00
2013-10-24,58.9,46.3,37.0,46.0,40.1,35.7,97,81,48,30.20,30.06,2,0,2,0.00
2013-10-25,53.2,44.2,35.3,43.6,34.4,27.4,93,71,37,30.37,30.20,2,0,2,0.00
2013-10-26,56.6,44.2,34.3,44.0,37.2,32.1,94,78,49,30.34,30.16,1,0,1,0.00
2013-10-27,65.4,52.6,40.8,55.9,48.1,39.2,95,85,64,30.17,30.09,1,0,1,0.00
2013-10-28,63.0,57.0,53.5,59.2,55.2,51.8,98,94,80,30.26,30.11,0,0,0,0.12
2013-10-29,71.2,60.8,52.3,61.8,57.0,51.5,99,88,68,30.31,30.21,1,0,1,0.00
2013-10-30,73.2,62.5,53.5,61.6,57.9,52.7,99,86,62,30.28,30.13,0,0,1,0.00
2013-10-31,72.3,64.9,57.4,65.0,60.0,54.7,96,85,74,30.15,29.83,1,0,1,0.00
2013-11-1,71.0,65.0,54.4,65.7,59.5,50.0,97,83,55,29.83,29.67,3,0,3,0.47
2013-11-2,65.1,54.1,45.7,52.0,46.9,41.8,97,78,44,30.04,29.78,3,0,3,0.00
2013-11-3,60.9,49.1,40.3,44.9,41.0,37.1,96,76,42,30.30,30.04,1,0,1,0.00
2013-11-4,59.3,49.8,42.4,43.2,40.6,38.8,93,72,48,30.43,30.30,2,0,2,0.00
2013-11-5,60.5,51.2,42.9,46.9,39.2,35.3,83,65,44,30.46,30.32,4,0,4,0.00
2013-11-6,66.6,54.8,50.6,58.0,51.2,47.0,94,88,73,30.33,30.18,3,0,3,0.00
2013-11-7,60.6,54.6,41.4,59.5,50.2,36.8,97,85,69,30.19,30.01,0,0,3,0.14
2013-11-8,57.9,45.3,34.2,38.3,33.8,28.2,94,68,32,30.33,30.19,0,0,1,0.00
2013-11-9,57.3,47.0,38.6,44.4,38.4,34.0,90,73,47,30.36,30.20,0,0,1,0.00
2013-11-10,66.9,52.9,44.6,46.3,43.3,41.5,92,72,46,30.27,30.17,0,0,1,0.00
2013-11-11,61.1,48.8,37.4,41.6,37.7,32.5,94,69,36,30.31,30.17,3,0,3,0.00
2013-11-12,59.8,43.8,31.2,45.6,34.8,20.1,95,72,50,30.44,30.13,4,0,4,0.00
2013-11-13,46.7,35.1,25.2,27.0,20.7,12.6,84,60,25,30.58,30.44,2,0,2,0.00
2013-11-14,54.7,38.3,25.6,34.1,25.1,20.2,95,65,26,30.50,30.32,2,0,2,0.00
2013-11-15,49.6,45.5,36.4,47.7,38.8,26.4,96,79,46,30.33,30.15,1,0,1,0.14
2013-11-16,60.1,54.3,48.8,56.7,52.7,47.7,97,94,87,30.23,30.13,1,0,1,0.00
2013-11-17,65.8,59.2,57.1,65.2,57.8,55.3,99,95,93,30.16,29.90,1,0,1,0.04
2013-11-18,67.6,60.3,48.8,67.3,47.5,36.2,99,66,38,30.01,29.85,3,0,3,0.21
2013-11-19,57.0,48.5,38.2,39.5,35.8,30.9,86,63,45,30.17,30.00,2,0,2,0.00
2013-11-20,53.4,46.7,40.5,36.6,32.7,29.5,71,58,49,30.34,30.17,2,0,5,0.00
2013-11-21,53.1,49.8,46.9,47.3,42.7,35.8,90,77,60,30.40,30.31,4,0,4,0.00
2013-11-22,62.2,55.8,49.7,58.0,53.5,47.3,97,92,85,30.35,30.16,1,0,1,0.04
2013-11-23,58.4,51.6,39.0,57.5,47.1,29.0,97,85,66,30.23,30.10,3,0,3,0.00
2013-11-24,44.4,36.4,29.0,28.6,21.7,14.4,74,57,31,30.47,30.22,2,0,2,0.00
2013-11-25,42.6,36.3,29.5,30.9,18.5,10.7,82,50,35,30.49,30.22,5,0,5,0.02
2013-11-26,48.0,39.7,33.3,47.5,38.4,29.1,98,95,76,30.23,29.65,3,0,3,0.24
2013-11-27,43.3,35.5,26.3,42.5,30.7,20.1,97,83,65,30.27,29.65,5,0,5,0.00
2013-11-28,46.3,32.8,24.5,28.8,23.4,19.3,89,70,39,30.48,30.26,1,0,1,0.00
2013-11-29,56.3,40.2,28.0,35.4,28.6,19.6,91,68,26,30.52,30.42,0,0,14,0.01
2013-11-30,49.0,42.1,35.3,31.7,28.5,27.0,73,59,43,30.56,30.34,2,0,6,0.00
2013-12-1,55.9,46.0,40.6,41.5,35.3,28.2,88,67,56,30.34,30.02,1,0,1,0.00
2013-12-2,51.0,47.1,42.8,50.2,45.3,39.5,97,94,88,30.02,29.82,1,0,1,0.34
2013-12-3,55.0,52.6,50.3,54.5,52.0,49.8,98,98,97,29.89,29.82,2,0,2,0.38
2013-12-4,68.5,59.2,53.7,64.6,58.1,53.2,99,96,83,30.01,29.89,2,0,2,0.04
2013-12-5,70.6,66.3,63.0,68.4,65.6,62.5,99,98,92,30.05,29.94,1,0,1,1.28
2013-12-6,73.1,67.8,56.6,67.6,65.5,55.3,98,93,82,30.02,29.91,2,0,4,0.40
2013-12-7,56.5,45.1,41.0,55.4,43.3,39.6,98,93,86,30.29,30.01,2,0,2,0.01
2013-12-8,49.0,43.5,39.2,48.2,42.7,38.4,98,97,94,30.29,30.18,4,0,4,0.33
2013-12-9,48.4,43.4,38.9,48.1,43.0,38.1,99,99,97,30.21,30.01,3,0,3,1.77
2013-12-10,49.0,42.6,30.3,48.7,39.5,28.5,99,89,67,30.33,29.94,4,0,4,0.16
2013-12-11,50.4,38.1,26.9,35.4,30.7,25.9,97,77,44,30.45,30.31,2,0,2,0.00
2013-12-12,44.1,35.8,29.9,33.0,26.5,21.6,90,70,46,30.46,30.35,3,0,3,0.00
2013-12-13,53.3,43.7,28.6,34.0,25.9,19.1,84,53,26,30.40,30.17,3,0,3,0.00
2013-12-14,48.1,46.2,43.9,47.6,42.2,29.5,98,87,53,30.18,29.82,2,0,3,0.85
2013-12-15,49.3,38.9,31.4,48.8,35.7,28.8,98,88,78,30.19,29.83,2,0,4,0.00
2013-12-16,49.9,38.2,29.4,35.6,31.5,27.9,95,79,49,30.27,30.18,3,0,3,0.00
2013-12-17,59.1,44.9,30.2,40.2,35.4,28.9,96,72,45,30.24,30.08,2,0,2,0.00
2013-12-18,50.4,41.5,32.9,35.4,25.7,18.8,81,56,30,30.33,30.17,1,0,1,0.00
2013-12-19,60.7,43.4,29.2,35.5,29.3,23.8,91,63,25,30.34,30.19,3,0,3,0.00
2013-12-20,60.7,49.4,37.5,52.2,43.0,32.3,90,79,65,30.23,30.11,2,0,2,0.00
2013-12-21,68.8,60.3,52.7,65.3,58.3,50.2,98,93,88,30.11,29.90,6,0,6,0.01
2013-12-22,69.2,61.1,56.6,65.5,59.6,55.6,99,95,87,30.04,29.86,6,0,6,3.10
2013-12-23,57.0,48.4,35.5,56.7,46.1,31.8,99,92,85,30.24,30.00,3,0,3,0.00
2013-12-24,38.6,33.4,28.3,31.8,26.8,22.5,90,77,59,30.40,30.22,3,0,3,0.00
2013-12-25,41.8,33.9,27.0,28.0,22.6,18.2,84,64,46,30.50,30.35,3,0,3,0.00
2013-12-26,52.0,39.8,30.0,32.2,28.5,23.1,87,66,41,30.39,30.27,2,0,2,0.00
2013-12-27,49.7,37.7,28.7,33.3,29.3,25.8,93,74,43,30.47,30.33,2,0,2,0.00
2013-12-28,45.3,38.1,30.6,39.0,33.7,28.6,96,85,57,30.42,29.99,5,0,5,0.45
2013-12-29,49.4,43.9,39.5,46.3,42.3,38.5,98,94,87,30.05,29.86,4,0,4,0.01
2013-12-30,47.7,42.8,38.8,43.8,40.5,37.3,98,92,82,30.21,30.03,2,0,2,0.00
2013-12-31,45.7,39.3,32.9,37.2,32.1,26.8,91,76,49,30.37,30.20,1,0,2,0.00
2014-1-1,47.7,40.8,32.5,38.8,32.8,28.8,89,74,58,30.37,30.13,0,0,2,0.00
2014-1-2,48.2,40.2,25.2,47.4,36.8,17.6,97,88,70,30.13,29.77,2,0,5,0.14